createdAt,value
2023-05-04T00:01:02.161Z,18.29
2023-05-04T00:03:30.301Z,18.24
2023-05-04T00:05:58.039Z,18.20
2023-05-04T00:08:26.105Z,18.11
2023-05-04T00:10:55.841Z,18.05
2023-05-04T00:13:24.250Z,18.18
2023-05-04T00:15:52.762Z,18.00
2023-05-04T00:18:20.333Z,17.78
2023-05-04T00:20:48.077Z,17.62
2023-05-04T00:23:15.707Z,17.42
2023-05-04T00:25:44.102Z,17.41
2023-05-04T00:28:12.043Z,17.35
2023-05-04T00:30:39.940Z,17.32
2023-05-04T00:33:07.729Z,17.21
2023-05-04T00:35:35.258Z,16.97
2023-05-04T00:38:04.099Z,16.91
2023-05-04T00:40:32.111Z,16.74
2023-05-04T00:43:00.102Z,16.74
2023-05-04T00:45:28.686Z,16.71
2023-05-04T00:47:56.997Z,16.75
2023-05-04T00:50:26.278Z,16.48
2023-05-04T00:52:57.538Z,16.55
2023-05-04T00:55:25.458Z,16.48
2023-05-04T00:57:53.284Z,16.58
2023-05-04T01:00:21.062Z,16.57
2023-05-04T01:02:49.673Z,16.56
2023-05-04T01:05:17.380Z,16.52
2023-05-04T01:07:56.145Z,16.68
2023-05-04T01:10:47.937Z,16.56
2023-05-04T01:13:19.350Z,16.45
2023-05-04T01:15:47.960Z,16.41
2023-05-04T01:18:16.641Z,16.40
2023-05-04T01:20:44.241Z,16.43
2023-05-04T01:23:12.249Z,16.60
2023-05-04T01:25:51.454Z,16.67
2023-05-04T01:28:39.731Z,16.48
2023-05-04T01:31:10.592Z,16.59
2023-05-04T01:33:38.765Z,16.62
2023-05-04T01:36:08.588Z,16.56
2023-05-04T01:38:36.487Z,16.56
2023-05-04T01:41:04.708Z,16.49
2023-05-04T01:43:32.265Z,16.52
2023-05-04T01:45:59.890Z,16.65
2023-05-04T01:48:28.395Z,16.65
2023-05-04T01:50:56.105Z,16.54
2023-05-04T01:53:23.612Z,16.45
2023-05-04T01:55:51.713Z,16.16
2023-05-04T01:58:19.771Z,16.02
2023-05-04T02:00:47.931Z,15.91
2023-05-04T02:03:16.000Z,15.93
2023-05-04T02:05:43.632Z,16.02
2023-05-04T02:08:11.539Z,16.07
2023-05-04T02:10:39.585Z,16.12
2023-05-04T02:13:07.242Z,16.25
2023-05-04T02:15:35.357Z,16.18
2023-05-04T02:18:03.397Z,16.10
2023-05-04T02:20:31.374Z,15.90
2023-05-04T02:22:59.096Z,15.89
2023-05-04T02:25:26.641Z,15.79
2023-05-04T02:27:54.247Z,15.87
2023-05-04T02:30:21.923Z,15.89
2023-05-04T02:32:50.169Z,16.00
2023-05-04T02:35:18.364Z,16.21
2023-05-04T02:37:45.925Z,16.10
2023-05-04T02:40:13.863Z,16.02
2023-05-04T02:42:41.663Z,16.08
2023-05-04T02:45:10.086Z,16.22
2023-05-04T02:47:37.935Z,16.28
2023-05-04T02:50:06.899Z,16.37
2023-05-04T02:52:35.007Z,16.40
2023-05-04T02:55:05.461Z,16.52
2023-05-04T02:57:33.456Z,16.55
2023-05-04T03:00:00.996Z,16.60
2023-05-04T03:02:28.666Z,16.40
2023-05-04T03:04:56.433Z,16.39
2023-05-04T03:07:24.188Z,16.33
2023-05-04T03:09:52.157Z,16.34
2023-05-04T03:12:20.526Z,16.16
2023-05-04T03:14:48.152Z,16.36
2023-05-04T03:17:16.619Z,16.16
2023-05-04T03:19:45.566Z,16.21
2023-05-04T03:22:13.849Z,16.22
2023-05-04T03:24:41.812Z,16.41
2023-05-04T03:27:09.879Z,16.24
2023-05-04T03:29:38.765Z,16.31
2023-05-04T03:32:07.565Z,16.42
2023-05-04T03:34:35.755Z,16.42
2023-05-04T03:37:06.327Z,16.32
2023-05-04T03:39:34.382Z,15.71
2023-05-04T03:42:02.684Z,15.54
2023-05-04T03:44:30.779Z,15.72
2023-05-04T03:46:59.173Z,15.70
2023-05-04T03:49:28.023Z,15.71
2023-05-04T03:51:55.756Z,15.74
2023-05-04T03:54:23.386Z,15.82
2023-05-04T03:56:50.992Z,15.53
2023-05-04T03:59:19.198Z,15.67
2023-05-04T04:01:47.404Z,15.72
2023-05-04T04:04:14.992Z,15.82
2023-05-04T04:06:43.531Z,15.75
2023-05-04T04:09:11.365Z,15.57
2023-05-04T04:11:39.074Z,15.59
2023-05-04T04:14:07.049Z,15.64
2023-05-04T04:16:34.755Z,15.34
2023-05-04T04:19:02.422Z,15.27
2023-05-04T04:21:30.500Z,15.27
2023-05-04T04:23:58.433Z,15.35
2023-05-04T04:26:25.970Z,15.31
2023-05-04T04:28:53.510Z,15.38
2023-05-04T04:31:22.051Z,15.54
2023-05-04T04:33:53.446Z,15.57
2023-05-04T04:36:25.494Z,15.45
2023-05-04T04:38:53.356Z,15.36
2023-05-04T04:41:30.210Z,15.28
2023-05-04T04:44:03.046Z,15.36
2023-05-04T04:46:31.185Z,15.49
2023-05-04T04:48:59.205Z,15.57
2023-05-04T04:51:27.893Z,15.72
2023-05-04T04:53:55.932Z,15.79
2023-05-04T04:56:23.532Z,15.87
2023-05-04T04:58:51.803Z,15.96
2023-05-04T05:01:19.881Z,15.99
2023-05-04T05:03:49.284Z,16.08
2023-05-04T05:06:17.038Z,16.07
2023-05-04T05:08:45.071Z,15.98
2023-05-04T05:11:12.949Z,15.97
2023-05-04T05:13:40.962Z,16.34
2023-05-04T05:16:09.539Z,16.55
2023-05-04T05:18:37.432Z,16.29
2023-05-04T05:21:05.830Z,16.52
2023-05-04T05:23:33.747Z,16.51
2023-05-04T05:26:03.234Z,16.70
2023-05-04T05:28:31.233Z,16.85
2023-05-04T05:30:58.800Z,16.90
2023-05-04T05:33:26.413Z,16.91
2023-05-04T05:35:54.108Z,16.76
2023-05-04T05:38:22.331Z,16.97
2023-05-04T05:40:50.277Z,17.17
2023-05-04T05:43:18.046Z,17.32
2023-05-04T05:45:45.585Z,17.59
2023-05-04T05:48:15.090Z,17.96
2023-05-04T05:50:43.042Z,18.06
2023-05-04T05:53:10.523Z,18.02
2023-05-04T05:55:38.101Z,18.17
2023-05-04T05:58:05.818Z,18.16
2023-05-04T06:00:34.131Z,18.49
2023-05-04T06:03:01.822Z,18.65
2023-05-04T06:05:29.560Z,18.62
2023-05-04T06:07:57.037Z,18.60
2023-05-04T06:10:25.237Z,18.75
2023-05-04T06:12:53.234Z,19.06
2023-05-04T06:15:20.858Z,19.24
2023-05-04T06:17:49.872Z,19.37
2023-05-04T06:20:17.972Z,19.38
2023-05-04T06:22:46.000Z,19.61
2023-05-04T06:25:14.076Z,19.84
2023-05-04T06:27:41.589Z,19.94
2023-05-04T06:30:10.117Z,19.91
2023-05-04T06:32:38.525Z,20.13
2023-05-04T06:35:09.191Z,20.19
2023-05-04T06:37:37.954Z,19.97
2023-05-04T06:40:07.301Z,20.06
2023-05-04T06:42:35.001Z,20.06
2023-05-04T06:45:03.306Z,20.22
2023-05-04T06:47:34.871Z,20.34
2023-05-04T06:50:07.000Z,19.44
2023-05-04T06:52:34.852Z,19.57
2023-05-04T06:55:02.483Z,19.74
2023-05-04T06:57:30.516Z,19.89
2023-05-04T06:59:58.260Z,19.85
2023-05-04T07:02:26.198Z,19.76
2023-05-04T07:04:54.697Z,19.67
2023-05-04T07:07:22.699Z,20.10
2023-05-04T07:09:50.662Z,20.73
2023-05-04T07:12:18.702Z,20.79
2023-05-04T07:14:47.201Z,20.71
2023-05-04T07:17:14.848Z,20.49
2023-05-04T07:19:43.084Z,20.53
2023-05-04T07:22:10.678Z,20.49
2023-05-04T07:24:38.197Z,20.68
2023-05-04T07:27:06.571Z,20.69
2023-05-04T07:29:35.476Z,20.08
2023-05-04T07:32:03.560Z,20.56
2023-05-04T07:34:44.547Z,20.61
2023-05-04T07:37:14.325Z,20.30
2023-05-04T07:39:42.493Z,20.43
2023-05-04T07:42:11.769Z,19.97
2023-05-04T07:44:40.133Z,20.50
2023-05-04T07:47:08.292Z,21.01
2023-05-04T07:49:36.443Z,19.87
2023-05-04T07:52:04.629Z,20.47
2023-05-04T07:54:32.707Z,20.86
2023-05-04T07:57:04.840Z,21.02
2023-05-04T07:59:33.284Z,20.53
2023-05-04T08:02:00.922Z,20.31
2023-05-04T08:04:28.583Z,20.28
2023-05-04T08:06:56.611Z,20.44
2023-05-04T08:09:24.172Z,20.73
2023-05-04T08:11:52.665Z,21.55
2023-05-04T08:14:20.369Z,21.80
2023-05-04T08:16:47.848Z,21.91
2023-05-04T08:19:15.436Z,21.23
2023-05-04T08:21:43.076Z,21.02
2023-05-04T08:24:11.474Z,21.36
2023-05-04T08:26:39.800Z,21.59
2023-05-04T08:29:10.764Z,21.50
2023-05-04T08:31:40.516Z,21.63
2023-05-04T08:34:08.616Z,21.68
2023-05-04T08:36:36.179Z,21.99
2023-05-04T08:39:04.264Z,21.44
2023-05-04T08:41:31.867Z,21.75
2023-05-04T08:43:59.935Z,20.81
2023-05-04T08:46:31.482Z,21.34
2023-05-04T08:48:59.199Z,21.39
2023-05-04T08:51:28.996Z,22.21
2023-05-04T08:53:57.442Z,22.16
2023-05-04T08:56:25.481Z,22.29
2023-05-04T08:58:57.951Z,22.51
2023-05-04T09:01:26.546Z,22.66
2023-05-04T09:03:55.564Z,22.63
2023-05-04T09:06:24.683Z,22.38
2023-05-04T09:08:52.206Z,21.88
2023-05-04T09:11:20.211Z,21.68
2023-05-04T09:13:47.836Z,21.98
2023-05-04T09:16:16.434Z,22.41
2023-05-04T09:18:44.951Z,22.42
2023-05-04T09:21:12.630Z,22.82
2023-05-04T09:23:51.394Z,22.79
2023-05-04T09:26:30.062Z,22.28
2023-05-04T09:29:09.836Z,22.67
2023-05-04T09:31:47.708Z,22.43
2023-05-04T09:34:16.254Z,22.08
2023-05-04T09:36:44.923Z,22.83
2023-05-04T09:39:13.987Z,23.25
2023-05-04T09:41:42.439Z,22.89
2023-05-04T09:44:21.472Z,23.51
2023-05-04T09:46:53.658Z,23.03
2023-05-04T09:49:35.132Z,24.08
2023-05-04T09:52:05.204Z,24.98
2023-05-04T09:54:35.140Z,24.52
2023-05-04T09:57:14.103Z,25.68
2023-05-04T09:59:42.346Z,26.15
2023-05-04T10:02:22.659Z,26.71
2023-05-04T10:04:52.861Z,27.65
2023-05-04T10:07:21.301Z,27.56
2023-05-04T10:09:50.431Z,26.36
2023-05-04T10:12:18.528Z,26.99
2023-05-04T10:14:47.229Z,27.92
2023-05-04T10:17:30.086Z,28.92
2023-05-04T10:20:10.404Z,29.10
2023-05-04T10:23:04.650Z,29.12
2023-05-04T10:26:13.361Z,28.71
2023-05-04T10:28:40.846Z,27.86
2023-05-04T10:31:09.401Z,28.14
2023-05-04T10:33:43.732Z,28.17
2023-05-04T10:36:12.297Z,26.95
2023-05-04T10:38:40.466Z,28.77
2023-05-04T10:41:18.503Z,28.14
2023-05-04T10:43:53.106Z,29.72
2023-05-04T10:46:22.296Z,27.94
2023-05-04T10:48:51.126Z,28.78
2023-05-04T10:51:35.723Z,27.67
2023-05-04T10:54:19.141Z,29.56
2023-05-04T10:56:47.069Z,30.29
2023-05-04T10:59:15.090Z,29.81
2023-05-04T11:01:45.895Z,30.50
2023-05-04T11:04:22.998Z,30.01
2023-05-04T11:07:02.514Z,29.49
2023-05-04T11:09:39.978Z,28.70
2023-05-04T11:12:10.798Z,30.45
2023-05-04T11:14:42.763Z,31.30
2023-05-04T11:17:27.374Z,31.09
2023-05-04T11:19:56.222Z,30.50
2023-05-04T11:22:24.087Z,31.23
2023-05-04T11:24:54.256Z,30.86
2023-05-04T11:27:25.208Z,30.98
2023-05-04T11:30:04.496Z,32.93
2023-05-04T11:32:43.720Z,33.18
2023-05-04T11:35:16.369Z,32.21
2023-05-04T11:37:46.375Z,30.77
2023-05-04T11:40:19.855Z,30.19
2023-05-04T11:42:49.797Z,30.43
2023-05-04T11:45:24.565Z,31.66
2023-05-04T11:47:53.716Z,30.53
2023-05-04T11:50:21.596Z,30.76
2023-05-04T11:52:49.969Z,32.20
2023-05-04T11:55:31.317Z,31.04
2023-05-04T11:58:08.198Z,30.94
2023-05-04T12:00:49.801Z,31.51
2023-05-04T12:03:29.964Z,32.23
2023-05-04T12:06:04.017Z,32.74
2023-05-04T12:08:38.085Z,33.75
2023-05-04T12:11:10.253Z,32.78
2023-05-04T12:13:38.092Z,33.07
2023-05-04T12:16:14.780Z,29.96
2023-05-04T12:18:45.429Z,28.92
2023-05-04T12:21:17.738Z,30.43
2023-05-04T12:23:46.925Z,31.78
2023-05-04T12:26:16.276Z,30.26
2023-05-04T12:28:46.102Z,30.99
2023-05-04T12:31:14.221Z,32.40
2023-05-04T12:33:41.779Z,31.46
2023-05-04T12:36:10.315Z,31.62
2023-05-04T12:38:38.080Z,32.29
2023-05-04T12:41:07.548Z,31.29
2023-05-04T12:43:35.765Z,32.54
2023-05-04T12:46:03.508Z,30.66
2023-05-04T12:48:33.008Z,28.22
2023-05-04T12:51:04.063Z,27.55
2023-05-04T12:53:32.403Z,28.65
2023-05-04T12:56:01.895Z,33.80
2023-05-04T12:58:31.186Z,32.33
2023-05-04T13:00:59.748Z,33.37
2023-05-04T13:03:27.713Z,34.80
2023-05-04T13:05:57.600Z,33.77
2023-05-04T13:08:25.971Z,35.07
2023-05-04T13:10:53.587Z,34.77
2023-05-04T13:13:24.551Z,35.58
2023-05-04T13:15:52.713Z,34.40
2023-05-04T13:18:20.277Z,34.95
2023-05-04T13:20:48.474Z,35.03
2023-05-04T13:23:16.671Z,34.03
2023-05-04T13:25:44.499Z,36.02
2023-05-04T13:28:12.646Z,38.11
2023-05-04T13:30:40.649Z,34.22
2023-05-04T13:33:20.819Z,35.85
2023-05-04T13:35:58.164Z,36.37
2023-05-04T13:38:27.048Z,36.90
2023-05-04T13:40:55.671Z,35.89
2023-05-04T13:43:23.781Z,35.63
2023-05-04T13:45:52.561Z,33.62
2023-05-04T13:48:20.131Z,35.96
2023-05-04T13:50:48.052Z,37.12
2023-05-04T13:53:15.751Z,36.24
2023-05-04T13:55:43.925Z,34.75
2023-05-04T13:58:11.964Z,33.68
2023-05-04T14:00:39.607Z,38.10
2023-05-04T14:03:07.544Z,35.47
2023-05-04T14:05:35.839Z,33.30
2023-05-04T14:08:03.946Z,33.43
2023-05-04T14:10:32.374Z,36.03
2023-05-04T14:13:00.195Z,37.78
2023-05-04T14:15:27.935Z,39.40
2023-05-04T14:17:55.571Z,39.56
2023-05-04T14:20:23.244Z,39.78
2023-05-04T14:22:51.557Z,36.12
2023-05-04T14:25:19.619Z,36.85
2023-05-04T14:27:47.147Z,34.20
2023-05-04T14:30:15.061Z,35.66
2023-05-04T14:32:42.822Z,35.89
2023-05-04T14:35:11.150Z,37.19
2023-05-04T14:37:40.864Z,33.91
2023-05-04T14:40:10.844Z,34.26
2023-05-04T14:42:39.009Z,34.79
2023-05-04T14:45:08.497Z,33.90
2023-05-04T14:47:36.610Z,33.61
2023-05-04T14:50:05.973Z,34.35
2023-05-04T14:52:34.200Z,34.26
2023-05-04T14:55:02.664Z,35.22
2023-05-04T14:57:30.224Z,35.63
2023-05-04T14:59:58.237Z,32.57
2023-05-04T15:02:26.441Z,34.67
2023-05-04T15:04:54.177Z,35.32
2023-05-04T15:07:21.858Z,35.20
2023-05-04T15:09:49.340Z,35.33
2023-05-04T15:12:17.666Z,35.48
2023-05-04T15:14:46.338Z,36.39
2023-05-04T15:17:14.299Z,34.79
2023-05-04T15:19:41.840Z,33.56
2023-05-04T15:22:09.570Z,33.37
2023-05-04T15:24:37.543Z,33.99
2023-05-04T15:27:06.230Z,33.51
2023-05-04T15:29:33.835Z,35.41
2023-05-04T15:32:01.868Z,33.52
2023-05-04T15:34:29.505Z,34.60
2023-05-04T15:36:57.522Z,34.87
2023-05-04T15:39:25.138Z,35.37
2023-05-04T15:41:52.706Z,36.09
2023-05-04T15:44:23.568Z,36.09
2023-05-04T15:46:51.396Z,35.27
2023-05-04T15:49:19.389Z,35.06
2023-05-04T15:51:47.805Z,32.62
2023-05-04T15:54:15.448Z,33.45
2023-05-04T15:56:43.398Z,35.52
2023-05-04T15:59:11.108Z,38.33
2023-05-04T16:01:40.052Z,36.30
2023-05-04T16:04:08.184Z,33.96
2023-05-04T16:06:36.454Z,35.17
2023-05-04T16:09:04.231Z,35.39
2023-05-04T16:11:33.239Z,35.80
2023-05-04T16:14:00.971Z,33.01
2023-05-04T16:16:28.594Z,35.94
2023-05-04T16:18:56.793Z,35.53
2023-05-04T16:21:24.674Z,35.35
2023-05-04T16:23:52.305Z,35.79
2023-05-04T16:26:20.218Z,34.18
2023-05-04T16:28:48.395Z,35.29
2023-05-04T16:31:16.398Z,36.74
2023-05-04T16:33:47.500Z,34.95
2023-05-04T16:36:15.379Z,36.06
2023-05-04T16:38:43.170Z,37.10
2023-05-04T16:41:11.557Z,33.18
2023-05-04T16:43:39.516Z,34.17
2023-05-04T16:46:07.719Z,35.25
2023-05-04T16:48:37.380Z,35.38
2023-05-04T16:51:06.094Z,35.98
2023-05-04T16:53:35.074Z,35.27
2023-05-04T16:56:03.156Z,36.04
2023-05-04T16:58:30.904Z,35.24
2023-05-04T17:00:58.563Z,35.27
2023-05-04T17:03:26.260Z,34.05
2023-05-04T17:05:54.254Z,34.22
2023-05-04T17:08:23.452Z,33.96
2023-05-04T17:10:51.075Z,33.09
2023-05-04T17:13:18.906Z,33.70
2023-05-04T17:15:47.145Z,31.11
2023-05-04T17:18:15.309Z,29.94
2023-05-04T17:20:42.896Z,29.69
2023-05-04T17:23:11.530Z,28.99
2023-05-04T17:25:39.198Z,26.40
2023-05-04T17:28:07.299Z,26.88
2023-05-04T17:30:35.762Z,26.90
2023-05-04T17:33:04.034Z,26.46
2023-05-04T17:35:31.965Z,26.14
2023-05-04T17:37:59.503Z,25.91
2023-05-04T17:40:28.845Z,25.39
2023-05-04T17:42:57.133Z,25.51
2023-05-04T17:45:25.633Z,25.36
2023-05-04T17:47:53.581Z,24.82
2023-05-04T17:50:21.396Z,25.05
2023-05-04T17:52:55.848Z,24.84
2023-05-04T17:55:25.026Z,24.51
2023-05-04T17:57:54.693Z,24.21
2023-05-04T18:00:22.991Z,24.49
2023-05-04T18:02:50.793Z,24.31
2023-05-04T18:05:20.096Z,24.39
2023-05-04T18:07:47.767Z,24.18
2023-05-04T18:10:15.913Z,24.18
2023-05-04T18:12:43.554Z,24.28
2023-05-04T18:15:16.461Z,24.21
2023-05-04T18:17:44.551Z,24.31
2023-05-04T18:20:13.348Z,24.33
2023-05-04T18:22:41.285Z,24.33
2023-05-04T18:25:09.232Z,24.17
2023-05-04T18:27:37.062Z,23.91
2023-05-04T18:30:08.567Z,23.82
2023-05-04T18:32:36.657Z,23.94
2023-05-04T18:35:04.482Z,23.76
2023-05-04T18:37:33.609Z,23.71
2023-05-04T18:40:01.331Z,23.79
2023-05-04T18:42:29.228Z,23.73
2023-05-04T18:44:57.343Z,23.47
2023-05-04T18:47:24.898Z,23.08
2023-05-04T18:49:56.201Z,22.90
2023-05-04T18:52:24.296Z,22.92
2023-05-04T18:54:52.341Z,22.84
2023-05-04T18:57:20.218Z,22.60
2023-05-04T18:59:48.173Z,22.45
2023-05-04T19:02:16.815Z,22.41
2023-05-04T19:04:47.150Z,22.52
2023-05-04T19:07:15.732Z,22.55
2023-05-04T19:09:45.839Z,22.36
2023-05-04T19:12:14.205Z,22.28
2023-05-04T19:14:44.669Z,22.36
2023-05-04T19:17:14.805Z,22.22
2023-05-04T19:19:42.386Z,22.26
2023-05-04T19:22:11.767Z,22.16
2023-05-04T19:24:39.284Z,22.04
2023-05-04T19:27:07.986Z,22.04
2023-05-04T19:29:36.452Z,22.04
2023-05-04T19:32:15.861Z,22.01
2023-05-04T19:34:51.932Z,21.81
2023-05-04T19:37:21.210Z,21.74
2023-05-04T19:39:49.798Z,21.71
2023-05-04T19:42:17.449Z,21.82
2023-05-04T19:44:45.231Z,21.77
2023-05-04T19:47:12.870Z,21.78
2023-05-04T19:49:40.976Z,21.76
2023-05-04T19:52:09.182Z,21.71
2023-05-04T19:54:38.370Z,21.57
2023-05-04T19:57:06.519Z,21.31
2023-05-04T19:59:34.636Z,21.08
2023-05-04T20:02:02.357Z,21.06
2023-05-04T20:04:30.503Z,20.88
2023-05-04T20:06:58.208Z,21.02
2023-05-04T20:09:26.205Z,21.18
2023-05-04T20:11:54.791Z,21.13
2023-05-04T20:14:22.657Z,21.12
2023-05-04T20:16:51.494Z,20.93
2023-05-04T20:19:19.252Z,20.89
2023-05-04T20:21:47.913Z,20.94
2023-05-04T20:24:16.155Z,20.64
2023-05-04T20:26:44.451Z,20.69
2023-05-04T20:29:12.503Z,20.80
2023-05-04T20:31:41.443Z,20.66
2023-05-04T20:34:09.592Z,20.63
2023-05-04T20:36:37.202Z,20.76
2023-05-04T20:39:06.943Z,20.30
2023-05-04T20:41:34.618Z,20.38
2023-05-04T20:44:02.751Z,20.30
2023-05-04T20:46:31.945Z,20.28
2023-05-04T20:49:02.820Z,20.34
2023-05-04T20:51:31.190Z,20.20
2023-05-04T20:53:58.715Z,20.18
2023-05-04T20:56:26.644Z,20.06
2023-05-04T20:58:54.966Z,20.01
2023-05-04T21:01:23.314Z,19.78
2023-05-04T21:03:51.434Z,19.97
2023-05-04T21:06:19.219Z,19.89
2023-05-04T21:08:47.245Z,19.72
2023-05-04T21:11:14.860Z,19.62
2023-05-04T21:13:42.983Z,19.50
2023-05-04T21:16:11.566Z,19.46
2023-05-04T21:18:39.752Z,19.19
2023-05-04T21:21:07.735Z,19.37
2023-05-04T21:23:35.448Z,19.52
2023-05-04T21:26:04.262Z,19.54
2023-05-04T21:28:32.258Z,19.40
2023-05-04T21:31:00.505Z,19.26
2023-05-04T21:33:28.666Z,19.15
2023-05-04T21:35:56.452Z,19.25
2023-05-04T21:38:24.541Z,19.21
2023-05-04T21:40:52.101Z,19.36
2023-05-04T21:43:20.113Z,19.11
2023-05-04T21:45:47.794Z,18.90
2023-05-04T21:48:15.864Z,18.73
2023-05-04T21:50:43.957Z,18.80
2023-05-04T21:53:12.140Z,18.82
2023-05-04T21:55:39.916Z,18.97
2023-05-04T21:58:07.553Z,19.16
2023-05-04T22:00:35.200Z,19.16
2023-05-04T22:03:03.499Z,18.97
2023-05-04T22:05:31.827Z,18.97
2023-05-04T22:08:01.007Z,19.07
2023-05-04T22:10:29.391Z,19.06
2023-05-04T22:12:57.802Z,19.11
2023-05-04T22:15:29.636Z,19.10
2023-05-04T22:18:05.762Z,19.18
2023-05-04T22:20:34.738Z,19.10
2023-05-04T22:23:02.389Z,19.09
2023-05-04T22:25:30.018Z,19.15
2023-05-04T22:27:58.278Z,19.23
2023-05-04T22:30:26.998Z,19.23
2023-05-04T22:32:57.100Z,19.21
2023-05-04T22:35:25.504Z,19.07
2023-05-04T22:37:53.234Z,18.66
2023-05-04T22:40:21.363Z,18.59
2023-05-04T22:42:49.344Z,18.70
2023-05-04T22:45:18.323Z,18.82
2023-05-04T22:47:46.903Z,18.95
2023-05-04T22:50:15.155Z,19.12
2023-05-04T22:52:42.836Z,18.99
2023-05-04T22:55:10.386Z,19.05
2023-05-04T22:57:38.820Z,19.06
2023-05-04T23:00:08.483Z,18.96
2023-05-04T23:02:36.887Z,18.73
2023-05-04T23:05:05.975Z,18.63
2023-05-04T23:07:33.550Z,18.82
2023-05-04T23:10:02.238Z,18.78
2023-05-04T23:12:30.173Z,18.63
2023-05-04T23:14:57.730Z,18.63
2023-05-04T23:17:26.349Z,18.63
2023-05-04T23:19:54.321Z,18.67
2023-05-04T23:22:22.187Z,18.54
2023-05-04T23:24:50.121Z,18.36
2023-05-04T23:27:18.400Z,18.46
2023-05-04T23:29:46.205Z,18.43
2023-05-04T23:32:14.680Z,17.94
2023-05-04T23:34:42.582Z,18.10
2023-05-04T23:37:10.185Z,18.14
2023-05-04T23:39:38.163Z,18.26
2023-05-04T23:42:05.940Z,18.35
2023-05-04T23:44:33.908Z,18.26
2023-05-04T23:47:04.477Z,18.09
2023-05-04T23:49:32.449Z,18.18
2023-05-04T23:51:59.938Z,18.16
2023-05-04T23:54:27.452Z,17.71
2023-05-04T23:56:55.401Z,17.81
2023-05-04T23:59:23.205Z,17.92
